Time;durP1;ratioP1;P1;durP2;ratioP2;P2;SDS_P1;SDS_P2;PMS_P1;PMS_P2;Temp;Humidity;BMP_temperature;BMP_pressure;BME280_temperature;BME280_humidity;BME280_pressure;Samples;Min_cycle;Max_cycle;Signal;HPM_P1;HPM_P2
2021/05/28 00:00:22;;;;;;;14.43;8.38;;;;;;;29.25;69.27;101039.34;5071545;28;69975;-36
2021/05/28 00:02:53;;;;;;;12.70;8.40;;;;;;;29.27;69.44;101039.97;5079036;27;66137;-37
2021/05/28 00:05:23;;;;;;;8.77;7.47;;;;;;;29.30;69.63;101045.78;5074813;27;70339;-36
2021/05/28 00:07:55;;;;;;;12.25;8.32;;;;;;;29.30;69.36;101050.38;5074878;27;66188;-38
2021/05/28 00:10:26;;;;;;;15.00;7.80;;;;;;;29.32;69.75;101059.94;5088395;27;69611;-36
2021/05/28 00:12:56;;;;;;;14.68;8.23;;;;;;;29.38;69.99;101066.41;5071812;27;66177;-37
2021/05/28 00:15:27;;;;;;;14.27;7.97;;;;;;;29.40;69.96;101054.34;5073820;28;70547;-35
2021/05/28 00:17:57;;;;;;;12.60;8.48;;;;;;;29.44;70.20;101048.53;5063726;27;66674;-39
2021/05/28 00:20:28;;;;;;;16.83;8.40;;;;;;;29.47;70.03;101062.44;5073028;28;69922;-36
2021/05/28 00:22:58;;;;;;;15.23;7.82;;;;;;;29.51;70.47;101057.47;5074402;28;66139;-41
2021/05/28 00:25:29;;;;;;;28.50;8.80;;;;;;;29.52;69.71;101045.63;5056288;28;69274;-33
2021/05/28 00:28:00;;;;;;;24.88;8.15;;;;;;;29.57;69.89;101051.25;5076919;27;65337;-34
2021/05/28 00:30:30;;;;;;;22.55;8.55;;;;;;;29.66;69.95;101058.13;5074307;28;69951;-33
2021/05/28 00:33:01;;;;;;;21.13;8.57;;;;;;;29.67;69.60;101054.41;5078650;28;66101;-35
2021/05/28 00:35:31;;;;;;;16.73;8.02;;;;;;;29.76;70.07;101061.25;5071528;28;69158;-33
2021/05/28 00:38:02;;;;;;;21.08;8.20;;;;;;;29.75;69.56;101051.47;5071611;27;64902;-35
2021/05/28 00:40:32;;;;;;;19.23;8.15;;;;;;;29.82;69.50;101051.47;5078200;28;70040;-34
2021/05/28 00:43:03;;;;;;;17.83;7.75;;;;;;;29.91;69.13;101065.59;5073008;27;66709;-34
2021/05/28 00:45:34;;;;;;;15.00;7.85;;;;;;;29.97;69.41;101062.06;5067108;27;70250;-34
2021/05/28 00:48:05;;;;;;;15.23;8.30;;;;;;;29.95;69.02;101066.84;5066795;27;65871;-34
2021/05/28 00:50:38;;;;;;;10.02;7.55;;;;;;;30.04;68.98;101071.00;5069824;28;69250;-33
2021/05/28 00:53:09;;;;;;;20.50;7.75;;;;;;;30.00;69.12;101059.75;5067687;27;65256;-34
2021/05/28 00:55:39;;;;;;;10.55;7.78;;;;;;;30.10;68.53;101066.63;5067471;27;70032;-33
2021/05/28 00:58:11;;;;;;;18.77;7.65;;;;;;;30.13;68.55;101067.03;5066801;28;65961;-35
2021/05/28 01:00:41;;;;;;;9.90;7.43;;;;;;;30.16;68.20;101069.31;5071914;28;70211;-34
2021/05/28 01:03:11;;;;;;;8.60;7.10;;;;;;;30.20;68.63;101081.41;5074739;27;65377;-34
2021/05/28 01:05:42;;;;;;;17.02;7.50;;;;;;;30.23;67.99;101070.19;5076520;27;69741;-34
2021/05/28 01:08:13;;;;;;;9.98;7.20;;;;;;;30.22;68.26;101059.56;5066879;27;66196;-35
2021/05/28 01:10:45;;;;;;;10.05;6.60;;;;;;;30.30;67.78;101069.31;5067262;28;70366;-34
2021/05/28 01:13:15;;;;;;;;;;;;;;;30.06;68.62;101061.66;5072493;27;65978;-34
2021/05/28 01:15:45;;;;;;;17.27;7.45;;;;;;;30.31;68.19;101070.97;5062221;28;70142;-34
2021/05/28 01:18:16;;;;;;;9.05;6.85;;;;;;;30.33;68.10;101069.72;5075357;27;66097;-34
2021/05/28 01:20:47;;;;;;;7.55;6.55;;;;;;;30.41;67.39;101071.38;5069069;27;69790;-34
2021/05/28 01:23:17;;;;;;;9.55;6.30;;;;;;;30.43;67.30;101069.31;5069638;27;67347;-35
2021/05/28 01:25:48;;;;;;;12.95;6.65;;;;;;;30.45;67.73;101069.88;5070741;28;71069;-34
2021/05/28 01:28:19;;;;;;;8.65;6.05;;;;;;;30.49;67.13;101073.84;5071957;27;66076;-34
2021/05/28 01:30:50;;;;;;;7.22;6.38;;;;;;;30.50;67.05;101075.50;5066791;27;69989;-34
2021/05/28 01:33:21;;;;;;;10.65;6.32;;;;;;;30.52;67.23;101081.53;5073264;28;66403;-35
2021/05/28 01:35:52;;;;;;;10.27;6.70;;;;;;;30.50;67.10;101075.50;5067168;28;69407;-34
2021/05/28 01:38:23;;;;;;;12.60;6.20;;;;;;;30.50;66.94;101061.97;5066283;27;64687;-35
2021/05/28 01:40:54;;;;;;;6.63;6.03;;;;;;;30.58;66.87;101077.97;5061488;28;69831;-34
2021/05/28 01:43:24;;;;;;;7.85;6.10;;;;;;;30.49;66.65;101057.63;5066753;28;65385;-34
2021/05/28 01:45:56;;;;;;;8.98;5.78;;;;;;;30.61;66.81;101077.53;5064301;27;70272;-35
2021/05/28 01:48:30;;;;;;;11.43;5.80;;;;;;;30.64;66.75;101076.28;5071215;27;65620;-35
2021/05/28 01:51:00;;;;;;;8.13;6.20;;;;;;;30.62;66.43;101071.09;5074968;27;69639;-34
2021/05/28 01:53:31;;;;;;;5.95;5.35;;;;;;;30.70;66.29;101079.00;5062064;27;65501;-35
2021/05/28 01:56:02;;;;;;;8.45;5.60;;;;;;;30.44;66.74;101033.88;5067074;28;69888;-34
2021/05/28 01:58:34;;;;;;;6.13;5.53;;;;;;;30.72;66.30;101079.59;5072352;27;66395;-34
2021/05/28 02:01:05;;;;;;;6.10;5.47;;;;;;;30.75;66.30;101086.44;5073253;27;70380;-34
2021/05/28 02:03:36;;;;;;;6.35;5.55;;;;;;;30.78;66.70;101088.72;5074265;27;65983;-34
2021/05/28 02:06:07;;;;;;;7.18;5.90;;;;;;;30.78;66.62;101085.19;5070660;28;70019;-33
2021/05/28 02:08:39;;;;;;;6.60;5.25;;;;;;;30.81;66.45;101093.75;5072897;28;65893;-33
2021/05/28 02:11:09;;;;;;;7.35;5.72;;;;;;;30.74;66.57;101068.56;5072902;28;69848;-33
2021/05/28 02:13:40;;;;;;;7.22;5.85;;;;;;;30.90;66.09;101094.34;5065155;27;65972;-34
2021/05/28 02:16:13;;;;;;;5.95;5.40;;;;;;;30.89;66.15;101089.97;5058856;28;70007;-33
2021/05/28 02:18:44;;;;;;;5.95;4.97;;;;;;;30.92;66.24;101089.53;5069537;28;66188;-34
2021/05/28 02:21:18;;;;;;;5.90;5.30;;;;;;;30.96;66.30;101089.94;5068688;28;69347;-34
2021/05/28 02:23:49;;;;;;;5.50;5.00;;;;;;;30.97;65.60;101092.44;5074695;27;65447;-34
2021/05/28 02:26:21;;;;;;;5.57;5.05;;;;;;;30.96;65.81;101088.06;5070526;28;68925;-33
2021/05/28 02:28:51;;;;;;;5.95;5.35;;;;;;;31.01;65.95;101085.56;5073765;27;66888;-35
2021/05/28 02:31:22;;;;;;;7.10;5.70;;;;;;;31.03;65.72;101080.72;5069006;27;70949;-34
2021/05/28 02:33:53;;;;;;;7.70;5.18;;;;;;;31.01;65.56;101061.16;5063569;28;66216;-35
2021/05/28 02:36:24;;;;;;;5.40;4.90;;;;;;;31.06;65.27;101066.75;5061585;27;70243;-34
2021/05/28 02:38:55;;;;;;;5.75;5.13;;;;;;;31.08;65.87;101058.41;5071760;27;66036;-34
2021/05/28 02:41:27;;;;;;;5.32;4.78;;;;;;;31.09;65.38;101058.22;5067623;28;70135;-34
2021/05/28 02:44:00;;;;;;;5.78;5.32;;;;;;;31.12;65.43;101052.34;5069579;27;66269;-35
2021/05/28 02:46:33;;;;;;;7.45;5.65;;;;;;;31.14;65.05;101050.22;5060082;28;68904;-35
2021/05/28 02:49:07;;;;;;;5.40;4.50;;;;;;;31.18;65.21;101050.63;5065051;28;65369;-34
2021/05/28 02:51:42;;;;;;;5.38;4.93;;;;;;;31.19;65.48;101041.44;5074334;27;70038;-35
2021/05/28 02:54:15;;;;;;;8.50;4.88;;;;;;;31.24;65.10;101043.53;5072716;28;66376;-35
2021/05/28 02:56:46;;;;;;;6.10;4.72;;;;;;;31.27;64.97;101048.50;5063785;28;70011;-33
2021/05/28 02:59:18;;;;;;;5.25;4.85;;;;;;;31.23;65.23;101036.41;5070876;28;66225;-34
2021/05/28 03:01:51;;;;;;;5.00;4.50;;;;;;;31.30;65.55;101046.16;5072026;27;69945;-35
2021/05/28 03:04:21;;;;;;;5.05;4.55;;;;;;;31.32;65.16;101040.53;5064229;27;65345;-35
2021/05/28 03:06:53;;;;;;;4.72;4.35;;;;;;;31.34;65.09;101043.84;5063051;28;70201;-36
2021/05/28 03:09:27;;;;;;;4.85;4.43;;;;;;;31.37;65.18;101043.44;5070476;28;66104;-34
2021/05/28 03:12:00;;;;;;;6.55;4.78;;;;;;;31.41;64.99;101039.25;5068571;28;69613;-35
2021/05/28 03:14:36;;;;;;;5.05;4.35;;;;;;;31.44;64.47;101038.81;5068953;28;66407;-38
2021/05/28 03:17:07;;;;;;;;;;;;;;;31.23;65.36;101036.41;5068711;28;70076;-37
2021/05/28 03:19:46;;;;;;;4.95;4.55;;;;;;;31.45;64.42;101024.19;5065314;28;66400;-35
2021/05/28 03:22:36;;;;;;;4.43;4.07;;;;;;;31.50;64.56;101027.06;5061677;27;70424;-35
2021/05/28 03:25:12;;;;;;;5.07;4.63;;;;;;;31.32;64.94;100991.75;5050267;28;65171;-34
2021/05/28 03:27:48;;;;;;;5.97;4.55;;;;;;;31.56;64.36;101020.75;5065386;28;70536;-34
2021/05/28 03:30:20;;;;;;;4.50;4.00;;;;;;;31.60;64.54;101019.28;5070874;27;65964;-34
2021/05/28 03:32:52;;;;;;;4.38;3.97;;;;;;;31.58;64.63;101007.81;5061380;27;69895;-35
2021/05/28 03:35:26;;;;;;;5.53;4.28;;;;;;;31.67;64.31;101008.34;5069908;28;65795;-33
2021/05/28 03:37:58;;;;;;;6.10;4.60;;;;;;;31.66;64.54;101008.59;5071913;27;69967;-35
2021/05/28 03:40:30;;;;;;;4.40;4.10;;;;;;;31.67;64.47;101005.66;5054148;28;66307;-35
2021/05/28 03:43:00;;;;;;;4.47;4.05;;;;;;;31.72;64.04;100999.56;5066771;28;69989;-34
2021/05/28 03:45:34;;;;;;;4.07;3.78;;;;;;;31.75;64.07;100999.94;5067745;28;66385;-35
2021/05/28 03:48:05;;;;;;;5.10;4.25;;;;;;;31.74;64.00;100992.88;5066380;28;69910;-33
2021/05/28 03:50:35;;;;;;;3.88;3.67;;;;;;;31.80;64.22;100983.00;5063333;28;66246;-34
2021/05/28 03:53:08;;;;;;;4.10;3.70;;;;;;;31.79;64.23;100987.59;5065057;28;69869;-34
2021/05/28 03:55:38;;;;;;;9.32;4.00;;;;;;;31.79;63.92;100976.75;5065860;27;65445;-35
2021/05/28 03:58:09;;;;;;;3.97;3.67;;;;;;;31.78;64.34;100982.38;5056901;28;72402;-35
2021/05/28 04:00:40;;;;;;;7.40;4.25;;;;;;;31.89;63.88;100987.06;5067496;28;65402;-34
2021/05/28 04:03:10;;;;;;;4.28;3.75;;;;;;;31.85;63.52;100969.59;5068508;28;70316;-34
2021/05/28 04:05:41;;;;;;;3.50;3.30;;;;;;;31.92;63.76;100975.78;5074660;27;65569;-34
2021/05/28 04:08:13;;;;;;;3.95;3.65;;;;;;;31.90;63.65;100975.19;5068005;28;70020;-35
2021/05/28 04:10:44;;;;;;;3.90;3.50;;;;;;;31.91;64.14;100968.72;5060305;28;65743;-34
2021/05/28 04:13:15;;;;;;;4.10;3.70;;;;;;;31.88;64.03;100968.31;5070541;28;69252;-36
2021/05/28 04:15:45;;;;;;;4.18;3.80;;;;;;;31.91;63.76;100967.88;5062391;28;66391;-35
2021/05/28 04:18:16;;;;;;;3.80;3.40;;;;;;;31.87;64.09;100961.22;5067652;28;70351;-35
2021/05/28 04:20:54;;;;;;;3.95;3.65;;;;;;;31.94;63.79;100968.28;5065517;28;65968;-34
2021/05/28 04:23:25;;;;;;;3.70;3.40;;;;;;;31.95;64.00;100961.78;5059021;28;69955;-34
2021/05/28 04:25:56;;;;;;;4.00;3.70;;;;;;;32.01;63.69;100952.75;5067235;28;65787;-35
2021/05/28 04:28:30;;;;;;;4.97;3.28;;;;;;;32.05;63.65;100953.94;5064545;27;70169;-35
2021/05/28 04:31:01;;;;;;;;;;;;;;;31.87;63.85;100953.91;5070200;27;65898;-35
2021/05/28 04:33:32;;;;;;;6.55;3.25;;;;;;;32.12;63.25;100942.19;5070028;27;68992;-36
2021/05/28 04:36:06;;;;;;;3.53;3.20;;;;;;;32.10;63.45;100938.88;5072607;27;66026;-34
2021/05/28 04:38:40;;;;;;;6.03;3.53;;;;;;;32.19;63.46;100943.75;5065345;28;70307;-35
2021/05/28 04:41:11;;;;;;;3.42;3.22;;;;;;;32.19;63.44;100937.50;5054643;28;66978;-34
2021/05/28 04:43:43;;;;;;;3.47;2.90;;;;;;;32.20;63.00;100939.16;5067820;28;70651;-34
2021/05/28 04:46:13;;;;;;;2.75;2.55;;;;;;;32.21;63.25;100947.09;5073614;28;65270;-33
2021/05/28 04:48:48;;;;;;;3.15;2.95;;;;;;;32.17;63.30;100939.63;5071184;27;70113;-33
2021/05/28 04:51:19;;;;;;;3.40;3.17;;;;;;;32.23;63.40;100949.56;5070120;28;66384;-34
2021/05/28 04:53:49;;;;;;;6.20;3.10;;;;;;;32.27;63.37;100942.63;5077089;27;69967;-34
2021/05/28 04:56:21;;;;;;;3.00;2.78;;;;;;;32.33;63.03;100938.19;5063817;28;66365;-34
2021/05/28 04:58:51;;;;;;;3.47;3.17;;;;;;;32.35;62.94;100936.06;5071127;28;69587;-34
2021/05/28 05:01:22;;;;;;;3.53;3.22;;;;;;;32.42;62.91;100934.91;5070981;28;65256;-34
2021/05/28 05:03:55;;;;;;;3.17;2.97;;;;;;;32.44;62.90;100924.66;5073405;27;69606;-34
2021/05/28 05:06:26;;;;;;;3.65;3.42;;;;;;;32.45;62.59;100923.56;5068012;28;67896;-34
2021/05/28 05:08:56;;;;;;;3.13;2.80;;;;;;;32.52;62.98;100923.53;5069830;27;70060;-34
2021/05/28 05:11:27;;;;;;;3.38;2.58;;;;;;;32.51;62.42;100908.28;5071247;28;66630;-34
2021/05/28 05:13:59;;;;;;;3.55;2.95;;;;;;;32.59;62.47;100910.66;5070222;27;69931;-34
2021/05/28 05:16:30;;;;;;;3.10;2.50;;;;;;;32.61;62.45;100902.31;5069983;28;65787;-34
2021/05/28 05:19:15;;;;;;;3.70;2.65;;;;;;;32.65;62.61;100901.63;5074008;28;70175;-35
2021/05/28 05:21:53;;;;;;;3.03;2.72;;;;;;;32.63;62.20;100889.34;5072980;27;65223;-35
2021/05/28 05:24:24;;;;;;;3.50;3.10;;;;;;;32.68;62.23;100882.13;5070340;27;69357;-34
2021/05/28 05:26:55;;;;;;;;;;;;;;;32.51;62.59;100883.84;5075643;27;65919;-35
2021/05/28 05:29:26;;;;;;;4.47;3.10;;;;;;;32.75;62.36;100875.78;5068904;27;69068;-34
2021/05/28 05:31:57;;;;;;;2.83;2.63;;;;;;;32.76;62.18;100875.53;5065548;28;65350;-34
2021/05/28 05:34:29;;;;;;;3.15;2.92;;;;;;;32.74;62.29;100869.50;5073211;27;70136;-34
2021/05/28 05:37:03;;;;;;;3.50;2.67;;;;;;;32.74;62.29;100864.09;5071240;27;66636;-34
2021/05/28 05:39:36;;;;;;;2.72;2.53;;;;;;;32.76;62.30;100859.22;5074578;27;69095;-34
2021/05/28 05:42:28;;;;;;;;;;;;;;;32.56;62.58;100862.25;5061416;28;66682;-34
2021/05/28 05:45:04;;;;;;;2.67;2.47;;;;;;;32.80;62.11;100857.72;5067078;27;70388;-34
2021/05/28 05:47:56;;;;;;;2.80;2.60;;;;;;;32.81;62.21;100853.91;5068742;28;65431;-35
2021/05/28 05:50:35;;;;;;;2.70;2.50;;;;;;;32.77;62.29;100841.88;5075798;27;69841;-35
2021/05/28 05:53:05;;;;;;;3.10;2.85;;;;;;;32.80;62.20;100835.97;5073347;27;67214;-35
2021/05/28 05:55:41;;;;;;;2.58;2.38;;;;;;;32.84;62.18;100839.88;5075019;27;69814;-35
2021/05/28 05:58:12;;;;;;;3.08;2.88;;;;;;;32.84;62.36;100836.31;5075588;27;65211;-35
2021/05/28 06:00:47;;;;;;;2.60;2.40;;;;;;;32.83;62.17;100835.50;5063289;27;69928;-35
2021/05/28 06:03:18;;;;;;;2.80;2.60;;;;;;;32.82;62.36;100838.44;5073257;28;66328;-36
2021/05/28 06:05:48;;;;;;;2.80;2.60;;;;;;;32.83;62.25;100835.50;5070030;27;68742;-33
2021/05/28 06:08:21;;;;;;;6.55;3.20;;;;;;;32.83;62.41;100827.34;5068291;28;65098;-34
2021/05/28 06:10:55;;;;;;;2.70;2.42;;;;;;;32.84;62.03;100829.00;5071574;28;69075;-34
2021/05/28 06:13:26;;;;;;;2.42;2.25;;;;;;;32.83;62.51;100821.91;5065246;28;66434;-35
2021/05/28 06:15:59;;;;;;;2.60;2.35;;;;;;;32.84;62.25;100809.97;5074344;27;69468;-35
2021/05/28 06:18:39;;;;;;;8.68;2.60;;;;;;;32.85;62.18;100806.22;5070761;27;65197;-35
2021/05/28 06:21:11;;;;;;;2.70;2.35;;;;;;;32.83;62.31;100789.31;5068417;28;68963;-35
2021/05/28 06:23:42;;;;;;;;;;;;;;;32.64;62.37;100787.78;5069082;28;65393;-35
2021/05/28 06:26:20;;;;;;;2.35;2.15;;;;;;;32.89;62.42;100788.38;5074519;27;70302;-35
2021/05/28 06:28:52;;;;;;;2.60;2.40;;;;;;;32.96;62.33;100784.69;5068633;28;65592;-34
2021/05/28 06:31:26;;;;;;;2.38;2.17;;;;;;;32.96;61.91;100769.25;5063041;28;68985;-34
2021/05/28 06:33:59;;;;;;;2.80;2.60;;;;;;;33.06;62.13;100776.81;5070342;28;66055;-36
2021/05/28 06:36:32;;;;;;;2.50;2.28;;;;;;;33.10;61.89;100772.56;5074679;27;69903;-35
2021/05/28 06:39:10;;;;;;;2.10;2.00;;;;;;;33.14;61.60;100766.41;5067273;27;66294;-35
2021/05/28 06:41:42;;;;;;;2.72;2.53;;;;;;;33.22;61.78;100761.69;5073565;27;70797;-35
2021/05/28 06:44:13;;;;;;;;;;;;;;;33.00;62.00;100756.84;5067315;28;66222;-35
2021/05/28 06:46:44;;;;;;;2.70;2.20;;;;;;;33.20;61.62;100750.22;5071757;28;70494;-34
2021/05/28 06:49:20;;;;;;;2.78;2.58;;;;;;;33.23;61.85;100753.28;5067101;28;66196;-35
2021/05/28 06:51:54;;;;;;;3.25;2.40;;;;;;;33.25;61.84;100756.59;5070300;27;70345;-35
2021/05/28 06:54:25;;;;;;;2.47;2.27;;;;;;;33.23;61.73;100744.28;5063790;28;65341;-35
2021/05/28 06:56:57;;;;;;;2.42;2.10;;;;;;;33.23;61.66;100726.09;5070239;27;70176;-35
2021/05/28 06:59:29;;;;;;;2.23;2.03;;;;;;;33.27;61.66;100732.72;5063234;27;66274;-35
2021/05/28 07:02:01;;;;;;;3.45;2.38;;;;;;;33.29;61.60;100729.75;5070957;28;69148;-35
2021/05/28 07:04:37;;;;;;;3.10;2.80;;;;;;;33.15;61.42;100686.53;5069788;27;65966;-35
2021/05/28 07:07:10;;;;;;;2.58;2.38;;;;;;;33.33;61.47;100710.00;5075473;27;70225;-35
2021/05/28 07:09:44;;;;;;;3.00;2.40;;;;;;;33.37;61.59;100705.72;5069365;27;65358;-34
2021/05/28 07:12:15;;;;;;;2.17;1.90;;;;;;;33.38;61.46;100710.09;5067021;27;69508;-34
2021/05/28 07:14:47;;;;;;;3.05;2.22;;;;;;;33.38;61.47;100706.56;5065058;28;65573;-34
2021/05/28 07:17:20;;;;;;;2.10;2.00;;;;;;;33.40;61.80;100714.47;5069998;28;70271;-35
2021/05/28 07:19:56;;;;;;;2.40;2.20;;;;;;;33.40;61.51;100703.59;5069565;28;66301;-38
2021/05/28 07:22:29;;;;;;;2.45;2.15;;;;;;;33.37;61.41;100705.72;5073454;28;70214;-35
2021/05/28 07:25:06;;;;;;;2.40;2.20;;;;;;;33.41;61.51;100705.25;5071832;27;65301;-34
2021/05/28 07:27:40;;;;;;;2.30;2.10;;;;;;;33.40;61.39;100693.53;5068506;28;70310;-34
2021/05/28 07:30:12;;;;;;;2.30;2.10;;;;;;;33.46;61.29;100700.75;5063484;28;65988;-34
2021/05/28 07:32:43;;;;;;;2.00;1.80;;;;;;;33.47;61.31;100698.84;5070632;27;69985;-34
2021/05/28 07:35:16;;;;;;;4.53;2.13;;;;;;;33.47;61.32;100693.41;5066933;27;66381;-36
2021/05/28 07:37:47;;;;;;;2.75;2.10;;;;;;;33.50;61.12;100688.31;5067683;27;71554;-36
2021/05/28 07:40:21;;;;;;;2.35;2.15;;;;;;;33.53;61.09;100684.31;5064012;28;66082;-36
2021/05/28 07:42:53;;;;;;;2.05;1.95;;;;;;;33.52;61.25;100674.47;5068603;28;70095;-36
2021/05/28 07:45:24;;;;;;;1.80;1.70;;;;;;;33.57;61.10;100677.28;5064601;27;66692;-37
2021/05/28 07:47:58;;;;;;;2.15;1.98;;;;;;;33.59;60.93;100670.53;5065450;28;69820;-37
2021/05/28 07:50:48;;;;;;;2.42;2.22;;;;;;;33.59;61.07;100665.09;5068511;27;65563;-35
2021/05/28 07:53:25;;;;;;;1.80;1.70;;;;;;;33.58;61.04;100662.66;5064788;28;69250;-36
2021/05/28 07:56:05;;;;;;;2.25;2.03;;;;;;;33.56;61.13;100659.34;5061173;27;66099;-35
2021/05/28 07:58:37;;;;;;;5.18;1.88;;;;;;;33.57;61.10;100655.53;5065663;28;72178;-36
2021/05/28 08:01:08;;;;;;;3.47;2.10;;;;;;;33.55;60.90;100646.81;5068390;27;66494;-37
2021/05/28 08:03:47;;;;;;;2.20;2.00;;;;;;;33.52;61.02;100644.56;5066145;28;71244;-36
2021/05/28 08:06:22;;;;;;;2.28;1.90;;;;;;;33.49;61.00;100647.75;5066821;28;66237;-35
2021/05/28 08:08:55;;;;;;;2.25;2.05;;;;;;;33.47;61.23;100634.41;5060947;27;70106;-35
2021/05/28 08:11:28;;;;;;;2.35;1.85;;;;;;;33.52;61.14;100636.41;5062727;28;66242;-35
2021/05/28 08:14:00;;;;;;;6.72;1.83;;;;;;;33.52;60.99;100630.97;5069850;28;72472;-35
2021/05/28 08:16:30;;;;;;;1.95;1.85;;;;;;;33.48;60.89;100630.59;5059972;27;65737;-35
2021/05/28 08:19:13;;;;;;;2.22;2.00;;;;;;;33.50;60.88;100635.81;5067298;27;69357;-35
2021/05/28 08:21:47;;;;;;;4.80;1.80;;;;;;;33.49;61.02;100643.16;5066743;27;66062;-34
2021/05/28 08:24:22;;;;;;;1.88;1.77;;;;;;;33.37;61.16;100628.75;5069442;27;69908;-34
2021/05/28 08:26:57;;;;;;;1.83;1.67;;;;;;;33.48;61.00;100651.53;5073145;28;65831;-34
2021/05/28 08:29:28;;;;;;;2.22;2.00;;;;;;;33.47;61.09;100649.91;5069421;27;70368;-35
2021/05/28 08:32:01;;;;;;;4.65;1.83;;;;;;;33.43;61.12;100648.72;5064156;27;66416;-35
2021/05/28 08:34:45;;;;;;;5.00;2.10;;;;;;;33.43;61.13;100659.59;5072415;27;70399;-35
2021/05/28 08:37:18;;;;;;;2.42;2.08;;;;;;;33.43;61.18;100670.47;5081034;27;66724;-35
2021/05/28 08:39:52;;;;;;;1.70;1.60;;;;;;;33.30;61.32;100644.41;5071479;28;69495;-34
2021/05/28 08:42:30;;;;;;;2.20;2.00;;;;;;;33.20;61.21;100633.34;5073622;27;65912;-35
2021/05/28 08:45:00;;;;;;;1.90;1.80;;;;;;;33.37;61.32;100667.66;5072595;28;69784;-35
2021/05/28 08:47:34;;;;;;;4.03;2.10;;;;;;;33.37;61.27;100666.81;5071181;27;66550;-34
2021/05/28 08:50:15;;;;;;;2.40;2.20;;;;;;;33.34;61.37;100659.16;5068159;27;70165;-35
2021/05/28 08:52:47;;;;;;;2.30;2.10;;;;;;;33.34;61.41;100651.81;5065179;27;66389;-35
2021/05/28 08:55:20;;;;;;;1.83;1.73;;;;;;;33.33;61.40;100660.25;5065919;28;69564;-34
2021/05/28 08:57:50;;;;;;;2.53;1.90;;;;;;;33.26;61.18;100656.81;5065085;28;65394;-35
2021/05/28 09:00:28;;;;;;;2.75;2.00;;;;;;;33.32;61.43;100672.16;5073294;28;70912;-35
2021/05/28 09:03:17;;;;;;;2.08;1.88;;;;;;;33.01;61.35;100640.84;5064934;28;66517;-35
2021/05/28 09:05:54;;;;;;;2.45;2.25;;;;;;;33.24;61.28;100662.53;5070510;28;70102;-35
2021/05/28 09:08:35;;;;;;;2.20;2.00;;;;;;;33.10;61.29;100642.13;5068054;27;66241;-35
2021/05/28 09:11:14;;;;;;;3.33;2.40;;;;;;;33.27;61.38;100677.53;5063408;27;70777;-35
2021/05/28 09:13:52;;;;;;;1.95;1.85;;;;;;;33.23;61.53;100688.03;5073136;28;66778;-35
2021/05/28 09:16:26;;;;;;;3.47;2.42;;;;;;;33.23;61.30;100690.75;5064342;27;70164;-35
2021/05/28 09:18:59;;;;;;;2.67;2.15;;;;;;;33.00;61.57;100644.63;5063471;28;65328;-35
2021/05/28 09:21:35;;;;;;;3.10;2.67;;;;;;;33.23;61.43;100692.66;5066112;27;69195;-35
2021/05/28 09:24:07;;;;;;;4.00;2.72;;;;;;;33.02;61.45;100658.81;5070839;27;65275;-35
2021/05/28 09:26:38;;;;;;;3.90;2.30;;;;;;;33.18;61.45;100701.50;5068370;28;69311;-35
2021/05/28 09:29:10;;;;;;;2.88;2.40;;;;;;;33.13;61.41;100694.09;5069275;27;66553;-35
2021/05/28 09:31:43;;;;;;;3.05;2.33;;;;;;;33.13;61.43;100696.00;5071939;28;69946;-35
2021/05/28 09:34:27;;;;;;;3.40;2.67;;;;;;;33.12;61.42;100692.44;5063901;27;65954;-35
2021/05/28 09:37:10;;;;;;;4.53;2.58;;;;;;;32.93;61.49;100664.59;5068101;28;70010;-36
2021/05/28 09:39:44;;;;;;;2.97;2.70;;;;;;;33.09;61.65;100679.31;5067261;27;65346;-38
2021/05/28 09:42:14;;;;;;;4.13;2.70;;;;;;;32.83;61.61;100649.97;5067604;27;70123;-35
2021/05/28 09:44:45;;;;;;;2.60;2.17;;;;;;;33.09;61.75;100686.66;5067700;28;66301;-35
2021/05/28 09:47:18;;;;;;;2.67;2.47;;;;;;;33.10;61.71;100682.91;5072155;28;69944;-35
2021/05/28 09:49:56;;;;;;;5.32;3.40;;;;;;;33.08;61.70;100677.69;5065114;28;66306;-35
2021/05/28 09:52:32;;;;;;;3.15;2.95;;;;;;;33.06;62.07;100687.13;5070940;28;69550;-35
2021/05/28 09:55:11;;;;;;;3.30;2.88;;;;;;;32.66;61.68;100618.09;5067275;27;65001;-35
2021/05/28 09:57:45;;;;;;;3.33;2.95;;;;;;;33.04;61.83;100681.13;5070832;28;70510;-34
2021/05/28 10:00:32;;;;;;;4.97;3.10;;;;;;;33.00;61.92;100671.81;5065373;28;65989;-37
2021/05/28 10:03:16;;;;;;;31.30;4.80;;;;;;;32.94;62.36;100668.13;5063807;28;69917;-34
2021/05/28 10:05:51;;;;;;;15.98;6.70;;;;;;;32.87;62.46;100673.66;5076461;28;66163;-33
2021/05/28 10:08:24;;;;;;;16.80;7.07;;;;;;;32.52;62.62;100629.47;5072640;28;69343;-33
2021/05/28 10:10:57;;;;;;;34.80;8.18;;;;;;;32.66;62.97;100677.03;5072177;27;66281;-33
2021/05/28 10:13:28;;;;;;;15.90;7.45;;;;;;;32.60;62.95;100675.25;5069622;27;69933;-34
2021/05/28 10:15:59;;;;;;;25.63;8.15;;;;;;;32.52;63.35;100675.63;5072522;27;65693;-33
2021/05/28 10:18:32;;;;;;;15.65;8.98;;;;;;;32.46;63.68;100674.69;5074704;27;69867;-33
2021/05/28 10:21:03;;;;;;;19.25;9.05;;;;;;;32.18;63.39;100634.59;5072583;27;66274;-35
2021/05/28 10:23:34;;;;;;;19.95;8.60;;;;;;;32.39;63.41;100682.06;5069497;28;69881;-35
2021/05/28 10:26:05;;;;;;;24.50;7.68;;;;;;;32.38;63.22;100675.00;5068539;27;66024;-35
2021/05/28 10:28:36;;;;;;;13.40;6.15;;;;;;;32.32;63.36;100679.47;5069116;27;69521;-34
2021/05/28 10:31:07;;;;;;;16.60;6.63;;;;;;;32.32;63.24;100681.34;5067825;27;66585;-34
2021/05/28 10:33:48;;;;;;;19.77;6.25;;;;;;;32.32;63.40;100686.75;5069428;27;70369;-34
2021/05/28 10:36:41;;;;;;;16.77;5.93;;;;;;;32.24;63.30;100679.81;5072083;27;66022;-35
2021/05/28 10:39:13;;;;;;;21.50;5.78;;;;;;;32.28;63.21;100675.56;5075669;27;70072;-34
2021/05/28 10:41:57;;;;;;;12.25;4.53;;;;;;;32.21;63.27;100675.69;5068672;27;66611;-33
2021/05/28 10:44:40;;;;;;;8.18;4.40;;;;;;;31.98;63.24;100643.06;5076852;28;70000;-34
2021/05/28 10:47:15;;;;;;;7.53;5.03;;;;;;;32.25;63.24;100682.28;5073615;27;66171;-33
2021/05/28 10:49:51;;;;;;;10.82;4.47;;;;;;;31.82;63.34;100610.13;5069007;28;70025;-33
2021/05/28 10:52:34;;;;;;;8.48;4.90;;;;;;;31.97;63.18;100647.69;5068821;28;66379;-34
2021/05/28 10:55:10;;;;;;;11.25;5.28;;;;;;;32.23;63.54;100689.00;5071077;27;69732;-34
2021/05/28 10:57:48;;;;;;;11.93;4.85;;;;;;;32.02;63.69;100649.69;5073037;27;66964;-34
2021/05/28 11:00:35;;;;;;;11.98;5.18;;;;;;;32.26;63.81;100692.09;5074146;27;68866;-33
2021/05/28 11:03:12;;;;;;;14.10;5.63;;;;;;;32.28;63.89;100694.56;5072619;27;65959;-34
2021/05/28 11:05:49;;;;;;;9.57;5.53;;;;;;;32.34;64.04;100696.34;5067873;28;70135;-33
2021/05/28 11:08:44;;;;;;;8.55;5.00;;;;;;;32.29;64.12;100709.81;5072167;27;66340;-34
2021/05/28 11:11:36;;;;;;;7.22;5.60;;;;;;;32.29;64.38;100698.94;5064053;27;69287;-34
2021/05/28 11:14:11;;;;;;;8.02;5.07;;;;;;;32.38;64.32;100697.53;5069448;27;65604;-35
2021/05/28 11:16:55;;;;;;;8.55;4.85;;;;;;;32.36;64.64;100699.66;5069514;27;69296;-34
2021/05/28 11:19:31;;;;;;;11.13;5.35;;;;;;;32.17;64.84;100662.81;5067985;28;66501;-34
2021/05/28 11:22:08;;;;;;;5.60;5.13;;;;;;;32.16;63.79;100655.75;5066506;27;70138;-34
2021/05/28 11:24:51;;;;;;;5.82;5.32;;;;;;;32.28;63.69;100691.84;5057291;28;65098;-34
2021/05/28 11:27:23;;;;;;;6.90;6.03;;;;;;;32.27;63.95;100690.19;5070259;27;69164;-34
2021/05/28 11:29:54;;;;;;;19.30;6.75;;;;;;;32.22;63.98;100696.31;5069756;27;66282;-34
2021/05/28 11:32:43;;;;;;;10.73;6.70;;;;;;;32.20;63.70;100692.19;5064962;28;69287;-34
2021/05/28 11:35:30;;;;;;;9.93;6.85;;;;;;;32.15;63.91;100702.91;5066914;28;65931;-34
2021/05/28 11:38:04;;;;;;;14.20;7.30;;;;;;;31.89;64.15;100656.13;5068773;28;69861;-34
2021/05/28 11:40:34;;;;;;;10.95;6.78;;;;;;;32.08;64.23;100691.34;5071630;28;66040;-32
2021/05/28 11:43:36;;;;;;;9.82;7.05;;;;;;;31.94;64.66;100696.97;5065484;28;70249;-34
2021/05/28 11:46:06;;;;;;;14.32;7.65;;;;;;;32.00;64.42;100703.38;5063827;28;66649;-33
2021/05/28 11:48:36;;;;;;;7.95;7.22;;;;;;;31.92;64.31;100698.28;5074997;27;70140;-32
2021/05/28 11:51:17;;;;;;;11.75;7.38;;;;;;;31.95;64.65;100714.91;5072241;28;65451;-32
2021/05/28 11:53:48;;;;;;;10.07;7.00;;;;;;;31.92;64.74;100715.38;5069666;28;69838;-34